Flight Track Log - Related Links

Times and Time Zones

All times are in EDT time to prevent confusion due to time zone crossing. See the AAL1392 flight status page for this flight to view local times or setup timezone preferences in your user account.

Time Position Orientation Groundspeed Altitude Reporting Facility
EDT Latitude Longitude Course Direction KTS MPH feet Rate Location/Type
Fri 02:46:02 PM 29.5175 -98.4767 10° North 148 170 1,800  Level Houston Center
Fri 02:46:20 PM 29.5078 -98.4864 221° Southwest 157 181 2,300 1,527 Climbing Houston Center
Fri 02:46:57 PM 29.4853 -98.5139 227° Southwest 188 216 3,200 1,935 Climbing Houston Center
Fri 02:47:22 PM 29.4892 -98.5394 280° West 211 243 4,300 2,897 Climbing Houston Center
Fri 02:48:00 PM 29.7364 -98.4317 North  Level FlightAware Approximate
Fri 02:48:24 PM 29.5447 -98.6000 317° Northwest 280 322 7,400  Level Houston Center
Fri 02:49:00 PM 29.8050 -98.4260 North  Level FlightAware Approximate
Fri 02:49:26 PM 29.6222 -98.5789 13° North 286 329 10,200  Level Houston Center
Fri 02:50:00 PM 29.8736 -98.4203 North  Level FlightAware Approximate
Fri 02:50:28 PM 29.7111 -98.5478 17° North 337 388 11,900  Level Houston Center
Fri 02:51:00 PM 29.9420 -98.4116 10° North  Level FlightAware Approximate
Fri 02:51:31 PM 29.8225 -98.5047 19° North 395 455 13,700  Level Houston Center
Fri 02:52:33 PM 29.9353 -98.4608 19° North 421 484 16,100 2,468 Climbing Houston Center
Fri 02:53:35 PM 30.0617 -98.4114 19° North 439 505 18,800 2,371 Climbing Houston Center
Fri 02:54:37 PM 30.1831 -98.3814 12° North 443 510 21,000 1,935 Climbing Houston Center
Fri 02:55:39 PM 30.3106 -98.3639 North 445 512 22,800 1,536 Climbing Houston Center
Fri 02:56:42 PM 30.4294 -98.3461 North 457 526 24,200 1,056 Climbing Houston Center
Fri 02:57:44 PM 30.5614 -98.3250 North 464 534 25,000 387 Climbing Houston Center
Fri 02:58:46 PM 30.7214 -98.3019 North 481 554 25,000  Level Houston Center
Fri 02:59:48 PM 30.8525 -98.2822 North 474 545 25,000  Level Houston Center
Fri 03:00:50 PM 30.9864 -98.2617 North 474 545 25,000 -48 Level Houston Center
Fri 03:01:52 PM 31.1189 -98.2417 North 474 545 24,900 -470 Descending Houston Center
Fri 03:02:45 PM 31.2283 -98.2211 North 473 544 24,100 -470 Descending Fort Worth Center
Fri 03:03:47 PM 31.3567 -98.1728 18° North 475 547 24,000 -48 Descending Fort Worth Center
Fri 03:04:49 PM 31.4867 -98.1258 17° North 482 555 24,000 -48 Level Fort Worth Center
Fri 03:05:52 PM 31.6372 -98.0717 17° North 480 552 23,900 -816 Descending Fort Worth Center
Fri 03:06:54 PM 31.7642 -98.0236 18° North 478 550 22,300 -1,645 Descending Fort Worth Center
Fri 03:07:56 PM 31.8867 -97.9806 17° North 461 531 20,500 -1,935 Descending Fort Worth Center
Fri 03:08:58 PM 32.0153 -97.9328 17° North 451 519 18,300 -2,032 Descending Fort Worth Center
Fri 03:10:00 PM 32.1303 -97.8889 18° North 437 503 16,300 -1,935 Descending Fort Worth Center
Fri 03:11:02 PM 32.2317 -97.7928 39° Northeast 440 506 14,300 -1,645 Descending Fort Worth Center
Fri 03:12:04 PM 32.3153 -97.6917 46° Northeast 433 498 12,900 -1,403 Descending Fort Worth Center
Fri 03:13:06 PM 32.3961 -97.5953 45° Northeast 417 480 11,400 -919 Descending Fort Worth Center
Fri 03:14:08 PM 32.4831 -97.4922 45° Northeast 413 475 11,000 -194 Descending Fort Worth Center
Fri 03:15:10 PM 32.5622 -97.3975 45° Northeast 409 471 11,000 -48 Level Fort Worth Center
Fri 03:16:13 PM 32.6406 -97.3017 46° Northeast 405 466 10,900  Descending Fort Worth Center
Fri 03:17:15 PM 32.7106 -97.2172 45° Northeast 324 373 11,000 48 Climbing Fort Worth Center
Fri 03:18:17 PM 32.7764 -97.1689 32° Northeast 260 299 11,000 -774 Level Fort Worth Center
Fri 03:19:19 PM 32.8478 -97.1689 360° North 257 296 9,400 -1,597 Descending Fort Worth Center
Fri 03:20:21 PM 32.9247 -97.1658 North 257 296 7,700 -1,500 Descending Fort Worth Center
Fri 03:21:23 PM 32.9911 -97.1636 North 244 281 6,300 -1,742 Descending Fort Worth Center
Fri 03:22:25 PM 33.0628 -97.1625 North 240 276 4,100 -1,597 Descending Fort Worth Center
Fri 03:23:27 PM 33.0861 -97.1011 66° East 228 262 3,000 -629 Descending Fort Worth Center
Fri 03:24:29 PM 33.0614 -97.0581 124° Southeast 177 204 2,800 -290 Descending Fort Worth Center
Fri 03:25:31 PM 33.0103 -97.0550 177° South 162 186 2,400 -576 Descending Fort Worth Center
Fri 03:26:34 PM 32.9683 -97.0556 181° South 155 178 1,600 -720 Descending Fort Worth Center
Fri 03:27:36 PM 32.9325 -97.0556 180° South 135 155 900 -677 Descending Fort Worth Center

Login

Don't have an account? Register now (free) for customized features, flight alerts, and more!